Camas, WA

4:47 PM PDT on September 02, 2014 (GMT -0700)
Lacamas Shores | Change Station
CLOSE
Current Station
Personal Weather Station
Location: Camas, WA
Elevation: 305 ft
Nearby Weather Stations

Elev 305 ft 45.61 °N, 122.43 °W | Updated 4 minutes ago

Scattered Clouds
Scattered Clouds
70.8 °F
Feels Like 77 °F
N
1.0
Wind Variable Wind from WNW
Gusts 4.0 mph

Today
High -- | Low -- °F
--% Chance of Precip.
Yesterday
High -- | Low -- °F
Precip. -- in
6:32 AM 7:45 PM
First Quarter, 56% visible
Pressure 29.89 in
Visibility 10.0 miles
Clouds Few 6000 ft
Scattered Clouds 7500 ft
Heat Index 77 °F
Dew Point 51 °F
Humidity 49%
Rainfall 0.00 in
Snow Depth Not available.
UV 4 out of 12
Pollen 3.60 out of 12
Air Quality Not available.
Flu Activity Not available.
METAR KTTD 022253Z 33008G15KT 290V350 10SM FEW060 SCT075 24/09 A2989 RMK AO2 SLP120 T02440094

More Conditions Fewer Conditions

Pressure 29.89 in
Visibility 10.0 miles
Clouds Few 6000 ft
Scattered Clouds 7500 ft
Heat Index 77 °F
Dew Point 51 °F
Humidity 49%
Rainfall 0.00 in
Snow Depth Not available.
UV 4 out of 12
Pollen 3.60 out of 12
Air Quality Not available.
Flu Activity Not available.
METAR KTTD 022253Z 33008G15KT 290V350 10SM FEW060 SCT075 24/09 A2989 RMK AO2 SLP120 T02440094

More Conditions Fewer Conditions

10-Day Weather Forecast

Almanac

Astronomy

Sep. 02, 2014 Rise Set
Actual Time 6:32 AM PDT 7:45 PM PDT
Civil Twilight 6:01 AM PDT 8:15 PM PDT
Nautical Twilight 5:24 AM PDT 8:52 PM PDT
Astronomical Twilight 4:45 AM PDT 9:31 PM PDT
Moon 2:43 PM PDT No Moon Set
Length of Visible Light 14h 14m
Length of Day
13h 13m
Tomorrow will be 3m 5s shorter.
First Quarter, 56% of the Moon is Illuminated
Today
First Quarter
Sep 8
Full
Sep 15
Last Quarter
Sep 24
New
Oct 1
First Quarter

Today's Extremes

State Highs State Lows

Community

WunderPhotos

Upload Photos

1,749,799 photos uploaded!

Nearby

Snow Depth

Station Depth Elevation
Swift Creek 0 in 3770 ft
Spencer Meadow 0 in 3400 ft
Surprise Lakes 1 in 4250 ft
Lone Pine 0 in 3800 ft
Green Lake 0 in 6000 ft

Earthquake Activity

City Distance Mag. Time & Date
No recent earthquake activity has been reported nearby.
Minimum magnitude displayed is 2.5.

Coastal Water Temperatures

Place Temperature
No Stations Reporting

Nearby Weather Stations